Latest Weather Observations for Marree Airport

IDS60801

Issued at 10:01 am CST Tuesday 26 July 2016 (issued every 30 minutes, with the page automatically refreshed every 10 minutes)

About weather observations | Map of weather stations | Latest weather observations for SA | Other Formats
Station Details ID: 017126 Name: MARREE AERO Lat: -29.66 Lon: 138.07 Height: 50.0 m
Data from the previous 72 hours. | See also: Recent months at Marree Airport
Date/Time
CST
Temp
°C
App
Temp
°C
Dew
Point
°C
Rel
Hum
%
Delta-T
°C
Wind Press
QNH
hPa
Press
MSL
hPa
Rain since
9am
mm
Dir  Spd
km/h
Gust
km/h
Spd
kts
Gust
kts
26/10:00am 14.7 12.4 7.3 61 3.6 WNW 9 13 5 7 1023.1 1023.2 0.0
26/09:30am 13.8 11.8 7.1 64 3.3 WNW 7 11 4 6 1023.1 1023.2 0.0
26/09:00am 12.2 10.3 6.5 68 2.7 WNW 6 7 3 4 1022.9 1023.0 0.0
26/08:30am 9.9 7.8 5.7 75 1.9 NW 6 7 3 4 1022.7 1022.8 0.0
26/08:00am 7.2 4.4 5.2 87 0.9 WNW 9 11 5 6 1022.4 1022.5 0.0
26/07:30am 4.9 1.3 3.2 89 0.7 NW 11 13 6 7 1022.1 1022.1 0.0
26/07:00am 4.2 2.6 2.4 88 0.7 CALM 0 0 0 0 1021.7 1021.7 0.0
26/06:30am 4.3 1.6 2.5 88 0.7 SSW 6 9 3 5 1021.6 1021.6 0.0
26/06:00am 4.8 1.2 3.0 88 0.7 SW 11 13 6 7 1021.1 1021.1 0.0
26/05:30am 4.9 0.9 2.9 87 0.8 WSW 13 13 7 7 1020.9 1020.9 0.0
26/05:00am 4.8 0.4 2.8 87 0.8 WSW 15 15 8 8 1020.7 1020.7 0.0
26/04:30am 4.9 1.7 2.8 86 0.9 W 9 11 5 6 1020.7 1020.7 0.0
26/04:00am 4.4 0.6 1.8 83 1.0 W 11 13 6 7 1020.8 1020.8 0.0
26/03:30am 5.1 1.7 1.9 80 1.3 W 9 9 5 5 1020.9 1020.9 0.0
26/03:00am 5.1 2.1 1.8 79 1.3 WNW 7 9 4 5 1021.1 1021.1 0.0
26/02:30am 5.9 2.9 2.2 77 1.5 NNW 7 9 4 5 1021.3 1021.3 0.0
26/02:00am 7.0 3.4 3.1 76 1.6 NNW 11 11 6 6 1021.3 1021.3 0.0
26/01:30am 6.9 3.3 2.8 75 1.7 NNW 11 11 6 6 1021.4 1021.4 0.0
26/01:00am 6.8 3.2 2.7 75 1.7 NNW 11 13 6 7 1021.4 1021.4 0.0
26/12:30am 7.2 4.5 2.7 73 1.9 N 6 7 3 4 1021.6 1021.6 0.0
26/12:00am 7.5 4.8 2.6 71 2.0 WSW 6 9 3 5 1021.6 1021.6 0.0
 
Date/Time
CST
Temp
°C
App
Temp
°C
Dew
Point
°C
Rel
Hum
%
Delta-T
°C
Wind Press
QNH
hPa
Press
MSL
hPa
Rain since
9am
mm
Dir  Spd
km/h
Gust
km/h
Spd
kts
Gust
kts
25/11:30pm 7.6 4.3 2.3 69 2.2 WSW 9 11 5 6 1021.6 1021.6 0.0
25/11:00pm 8.3 5.4 2.8 68 2.3 WNW 7 7 4 4 1021.8 1021.8 0.0
25/10:30pm 9.0 6.2 3.2 67 2.5 WNW 7 7 4 4 1022.0 1022.0 0.0
25/10:00pm 9.4 6.2 3.2 65 2.7 NW 9 11 5 6 1022.0 1022.0 0.0
25/09:30pm 9.8 6.6 3.3 64 2.8 WNW 9 11 5 6 1022.1 1022.1 0.0
25/09:00pm 10.1 7.0 3.4 63 2.9 WNW 9 11 5 6 1022.2 1022.2 0.0
25/08:30pm 10.7 7.2 3.5 61 3.2 WNW 11 13 6 7 1022.0 1022.0 0.0
25/08:00pm 11.3 8.1 3.3 58 3.5 W 9 11 5 6 1021.8 1021.8 0.0
25/07:30pm 11.4 8.3 3.4 58 3.5 NW 9 11 5 6 1021.6 1021.6 0.0
25/07:00pm 12.4 8.5 3.6 55 3.9 WNW 13 15 7 8 1021.4 1021.4 0.0
25/06:30pm 13.4 10.0 3.8 52 4.3 WNW 11 13 6 7 1021.1 1021.1 0.0
25/06:00pm 15.2 10.7 4.0 47 5.2 W 17 19 9 10 1020.7 1020.7 0.0
25/05:30pm 16.3 11.2 4.0 44 5.7 W 20 32 11 17 1020.8 1020.8 0.0
25/05:00pm 17.1 11.6 3.8 41 6.2 W 22 32 12 17 1020.8 1020.8 0.0
25/04:30pm 17.4 11.8 3.3 39 6.5 WSW 22 32 12 17 1020.7 1020.7 0.0
25/04:00pm 17.5 12.4 3.0 38 6.7 W 19 32 10 17 1020.9 1020.9 0.0
25/03:30pm 17.6 12.0 3.5 39 6.5 W 22 30 12 16 1020.9 1020.9 0.0
25/03:00pm 17.5 12.6 4.1 41 6.3 W 19 32 10 17 1021.2 1021.2 0.0
25/02:30pm 17.4 11.8 3.7 40 6.4 W 22 33 12 18 1021.5 1021.5 0.0
25/02:00pm 17.3 12.7 3.9 41 6.3 WSW 17 28 9 15 1021.7 1021.7 0.0
25/01:30pm 16.8 10.9 3.8 42 6.0 W 24 32 13 17 1022.0 1022.0 0.0
25/01:00pm 16.7 12.6 4.1 43 5.9 NW 15 26 8 14 1022.4 1022.5 0.0
25/12:30pm 15.6 11.9 4.3 47 5.2 WSW 13 19 7 10 1023.2 1023.3 0.0
25/12:00pm 15.4 11.7 4.2 47 5.2 SW 13 17 7 9 1023.6 1023.7 0.0
25/11:30am 15.0 11.0 5.0 51 4.7 SSW 15 20 8 11 1024.1 1024.2 0.0
25/11:00am 14.3 11.3 5.9 57 4.0 WSW 11 17 6 9 1024.5 1024.6 0.0
25/10:30am 13.4 10.1 6.3 62 3.4 WSW 13 17 7 9 1024.6 1024.7 0.0
25/10:00am 12.5 9.1 6.1 65 3.0 WSW 13 19 7 10 1024.9 1025.0 0.0
25/09:30am 11.7 8.0 6.2 69 2.6 WSW 15 19 8 10 1024.7 1024.8 0.0
25/09:00am 10.6 7.2 6.0 73 2.1 W 13 17 7 9 1024.5 1024.6 0.0
25/08:30am 8.5 5.3 5.1 79 1.5 WNW 11 15 6 8 1024.3 1024.4 0.0
25/08:00am 5.9 2.9 4.2 89 0.7 W 9 11 5 6 1023.8 1023.9 0.0
25/07:30am 4.3 1.5 3.1 92 0.5 NW 7 9 4 5 1023.4 1023.5 0.0
25/07:00am 4.4 1.2 3.1 91 0.5 WNW 9 9 5 5 1022.9 1023.0 0.0
25/06:30am 4.3 1.3 2.2 86 0.8 WNW 7 11 4 6 1022.5 1022.6 0.0
25/06:00am 5.6 2.4 3.1 84 1.0 SW 9 11 5 6 1022.2 1022.2 0.0
25/05:30am 6.5 3.7 3.3 80 1.3 WSW 7 11 4 6 1021.7 1021.7 0.0
25/05:00am 6.0 3.3 2.8 80 1.3 N 6 7 3 4 1021.6 1021.6 0.0
25/04:30am 6.0 3.7 2.6 79 1.4 SW 4 6 2 3 1021.2 1021.2 0.0
25/04:00am 5.9 2.6 2.2 77 1.5 WSW 9 11 5 6 1021.0 1021.0 0.0
25/03:30am 7.0 2.6 2.7 74 1.8 SW 15 17 8 9 1021.0 1021.0 0.0
25/03:00am 7.4 3.0 2.9 73 1.9 SW 15 17 8 9 1021.1 1021.1 0.0
25/02:30am 8.3 4.0 3.0 69 2.2 SW 15 17 8 9 1021.1 1021.1 0.0
25/02:00am 9.3 4.6 3.3 66 2.6 SW 17 22 9 12 1021.2 1021.2 0.0
25/01:30am 9.9 3.9 3.2 63 2.9 SW 24 30 13 16 1020.9 1020.9 0.0
25/01:00am 9.5 3.7 2.1 60 3.1 SW 22 26 12 14 1021.0 1021.0 0.0
25/12:30am 9.7 3.8 1.6 57 3.4 SW 22 26 12 14 1021.2 1021.2 0.0
25/12:00am 9.6 4.0 1.5 57 3.3 SSW 20 24 11 13 1021.5 1021.5 0.0
 
Date/Time
CST
Temp
°C
App
Temp
°C
Dew
Point
°C
Rel
Hum
%
Delta-T
°C
Wind Press
QNH
hPa
Press
MSL
hPa
Rain since
9am
mm
Dir  Spd
km/h
Gust
km/h
Spd
kts
Gust
kts
24/11:30pm 9.1 4.2 1.8 60 3.0 SSW 17 19 9 10 1021.6 1021.6 0.0
24/11:00pm 9.0 4.5 1.9 61 3.0 SSW 15 17 8 9 1021.6 1021.6 0.0
24/10:30pm 7.8 2.8 1.6 65 2.5 WSW 17 17 9 9 1021.6 1021.6 0.0
24/10:00pm 8.5 3.9 1.6 62 2.8 WSW 15 15 8 8 1021.5 1021.5 0.0
24/09:30pm 9.3 5.1 1.5 58 3.2 WSW 13 15 7 8 1021.3 1021.3 0.0
24/09:00pm 10.8 6.3 2.1 55 3.7 W 15 15 8 8 1021.2 1021.2 0.0
24/08:30pm 11.4 7.2 1.9 52 4.0 WSW 13 15 7 8 1021.0 1021.0 0.0
24/08:00pm 13.3 8.4 1.9 46 4.9 WSW 17 20 9 11 1020.6 1020.6 0.0
24/07:30pm 13.9 8.3 1.5 43 5.3 WSW 20 26 11 14 1020.0 1020.0 0.0
24/07:00pm 14.9 7.8 1.4 40 5.9 WSW 28 35 15 19 1019.5 1019.5 0.0
24/06:30pm 15.3 8.5 3.1 44 5.5 WSW 28 35 15 19 1018.9 1018.9 0.0
24/06:00pm 15.6 7.8 3.1 43 5.7 SW 33 43 18 23 1018.4 1018.4 0.0
24/05:30pm 15.9 8.2 2.3 40 6.1 WSW 32 44 17 24 1018.0 1018.0 0.0
24/05:00pm 16.1 7.9 2.9 41 6.0 WSW 35 46 19 25 1017.6 1017.6 0.0
24/04:30pm 16.9 9.1 2.9 39 6.4 SW 33 41 18 22 1017.2 1017.2 0.0
24/04:22pm 17.0 8.9 3.3 40 6.3 WSW 35 54 19 29 1017.1 1017.1 0.0
24/04:00pm 17.2 9.0 2.8 38 6.6 WSW 35 46 19 25 1016.9 1016.9 0.0
24/03:30pm 17.9 9.3 2.6 36 7.0 WSW 37 46 20 25 1016.7 1016.7 0.0
24/03:00pm 17.1 8.4 2.3 37 6.7 WSW 37 50 20 27 1016.7 1016.7 0.0
24/02:43pm 17.3 8.6 1.7 35 7.0 W 37 56 20 30 1016.7 1016.7 0.0
24/02:30pm 17.0 7.8 1.4 35 6.9 WSW 39 52 21 28 1016.7 1016.7 0.0
24/02:00pm 18.0 10.0 1.5 33 7.4 W 33 46 18 25 1016.9 1016.9 0.0
24/01:30pm 17.4 9.4 1.4 34 7.1 W 33 56 18 30 1017.2 1017.2 0.0
24/01:00pm 17.0 8.9 1.0 34 7.0 W 33 46 18 25 1017.6 1017.6 0.0
24/12:32pm 16.1 8.0 1.0 36 6.6 WSW 33 52 18 28 1018.1 1018.1 0.0
24/12:30pm 15.8 7.3 0.8 36 6.5 WSW 35 48 19 26 1018.2 1018.2 0.0
24/12:00pm 15.7 7.6 0.7 36 6.5 WSW 33 44 18 24 1018.8 1018.8 0.0
24/11:30am 15.3 6.8 0.7 37 6.3 W 35 50 19 27 1019.1 1019.1 0.0
24/11:00am 14.9 5.6 0.7 38 6.1 W 39 50 21 27 1019.4 1019.4 0.0
24/10:30am 15.0 5.8 1.5 40 5.9 W 39 52 21 28 1019.3 1019.3 0.0
24/10:00am 14.2 5.1 1.8 43 5.4 WSW 39 50 21 27 1019.3 1019.3 0.0
24/09:30am 13.6 6.9 3.4 50 4.6 W 28 35 15 19 1019.1 1019.1 0.0
24/09:00am 13.1 7.5 3.7 53 4.2 W 22 32 12 17 1018.8 1018.8 0.0
24/08:30am 11.5 7.0 4.0 60 3.3 W 17 20 9 11 1018.3 1018.3 0.0
24/08:00am 8.6 5.0 3.2 69 2.3 W 11 13 6 7 1018.3 1018.3 0.0
24/07:30am 7.1 2.8 3.2 76 1.6 W 15 17 8 9 1017.9 1017.9 0.0
24/07:00am 6.6 2.9 2.3 74 1.8 WNW 11 11 6 6 1017.4 1017.4 0.0
24/06:30am 8.2 5.0 3.1 70 2.2 NW 9 9 5 5 1017.1 1017.1 0.0
24/06:00am 8.5 6.3 3.6 71 2.1 NW 4 7 2 4 1017.1 1017.1 0.0
24/05:30am 8.2 6.8 3.5 72 2.0 CALM 0 0 0 0 1016.9 1016.9 0.0
24/05:00am 8.7 7.3 3.5 70 2.2 CALM 0 0 0 0 1016.6 1016.6 0.0
24/04:30am 9.1 7.7 3.7 69 2.3 CALM 0 0 0 0 1016.4 1016.4 0.0
24/04:00am 9.0 7.6 3.6 69 2.3 CALM 0 0 0 0 1016.6 1016.6 0.0
24/03:30am 8.9 7.5 3.5 69 2.3 CALM 0 4 0 2 1017.0 1017.0 0.0
24/03:00am 8.9 6.4 3.5 69 2.3 WNW 6 6 3 3 1017.1 1017.1 0.0
24/02:30am 9.4 6.9 3.6 67 2.5 NW 6 7 3 4 1017.0 1017.0 0.0
24/02:00am 9.8 7.3 3.5 65 2.7 NW 6 7 3 4 1017.3 1017.3 0.0
24/01:30am 10.4 8.3 4.1 65 2.8 W 4 7 2 4 1017.1 1017.1 0.0
24/01:00am 10.7 9.4 4.0 63 3.0 CALM 0 0 0 0 1017.4 1017.4 0.0
24/12:30am 10.6 9.2 3.6 62 3.1 CALM 0 0 0 0 1017.5 1017.5 0.0
24/12:00am 10.9 9.5 3.7 61 3.2 CALM 0 0 0 0 1017.7 1017.7 0.0
 
Date/Time
CST
Temp
°C
App
Temp
°C
Dew
Point
°C
Rel
Hum
%
Delta-T
°C
Wind Press
QNH
hPa
Press
MSL
hPa
Rain since
9am
mm
Dir  Spd
km/h
Gust
km/h
Spd
kts
Gust
kts
23/11:30pm 11.2 9.8 3.7 60 3.3 CALM 0 0 0 0 1018.0 1018.0 0.0
23/11:00pm 11.3 9.9 3.8 60 3.3 CALM 0 4 0 2 1018.2 1018.2 0.0
23/10:30pm 11.6 8.9 3.6 58 3.5 SW 7 11 4 6 1018.1 1018.1 0.0
23/10:00pm 11.9 9.3 3.4 56 3.8 SW 6 7 3 4 1017.7 1017.7 0.0
23/09:30pm 12.2 9.4 3.4 55 3.9 SW 7 7 4 4 1018.3 1018.3 0.0
23/09:00pm 12.6 9.8 3.3 53 4.1 SW 7 9 4 5 1018.0 1018.0 0.0
23/08:30pm 12.5 9.7 2.9 52 4.2 SW 7 9 4 5 1018.3 1018.3 0.0
23/08:00pm 12.9 11.4 3.0 51 4.4 CALM 0 0 0 0 1018.1 1018.1 0.0
23/07:30pm 14.2 11.6 3.1 47 5.0 SW 6 7 3 4 1017.7 1017.7 0.0
23/07:00pm 14.5 10.9 2.7 45 5.3 SW 11 13 6 7 1017.9 1017.9 0.0
23/06:30pm 14.7 11.4 2.6 44 5.4 WSW 9 13 5 7 1018.1 1018.1 0.0
23/06:00pm 15.4 11.4 2.6 42 5.7 W 13 17 7 9 1018.0 1018.0 0.0
23/05:30pm 15.7 11.6 2.5 41 5.9 W 13 19 7 10 1017.4 1017.4 0.0
23/05:00pm 16.1 11.6 2.2 39 6.2 WSW 15 19 8 10 1017.2 1017.2 0.0
23/04:30pm 16.3 11.8 2.0 38 6.4 W 15 20 8 11 1017.1 1017.1 0.0
23/04:00pm 16.5 11.9 1.8 37 6.6 WSW 15 20 8 11 1017.1 1017.1 0.0
23/03:30pm 17.4 12.9 2.2 36 6.9 SW 15 22 8 12 1017.3 1017.3 0.0
23/03:00pm 17.1 12.6 2.3 37 6.7 SW 15 22 8 12 1017.5 1017.5 0.0
23/02:30pm 17.3 12.4 1.7 35 7.0 SSW 17 28 9 15 1017.7 1017.7 0.0
23/02:00pm 17.1 13.1 2.7 38 6.6 SW 13 22 7 12 1017.7 1017.7 0.0
23/01:30pm 16.7 11.5 2.7 39 6.4 SW 19 33 10 18 1018.1 1018.1 0.0
23/01:00pm 16.7 11.5 2.3 38 6.5 SW 19 28 10 15 1018.4 1018.4 0.0
23/12:30pm 16.8 11.9 4.2 43 5.9 SW 19 28 10 15 1018.9 1018.9 0.0
23/12:00pm 16.2 11.1 4.3 45 5.6 WSW 20 28 11 15 1019.5 1019.5 0.0
23/11:30am 15.0 10.2 4.4 49 4.9 SW 19 28 10 15 1019.8 1019.8 0.0
23/11:00am 14.7 9.9 5.5 54 4.4 WSW 20 30 11 16 1019.8 1019.8 0.0
23/10:30am 13.9 8.3 5.5 57 4.0 W 24 32 13 17 1020.2 1020.2 0.0

Other Formats:

Comma delimited format used in spreadsheet applications
http://www.bom.gov.au/fwo/IDS60801/IDS60801.95480.axf

JavaScript Object Notation format (JSON) in row-major order
http://www.bom.gov.au/fwo/IDS60801/IDS60801.95480.json